createdAt,value
2022-12-26T00:29:44.800Z,0.00
2022-12-26T00:30:42.125Z,0.00
2022-12-26T00:31:42.118Z,0.00
2022-12-26T00:32:41.921Z,0.00
2022-12-26T00:33:41.842Z,0.00
2022-12-26T00:34:41.766Z,0.00
2022-12-26T00:35:41.691Z,0.00
2022-12-26T00:36:41.612Z,0.00
2022-12-26T00:37:41.525Z,0.00
2022-12-26T00:38:41.457Z,0.00
2022-12-26T00:39:41.380Z,0.00
2022-12-26T00:40:41.286Z,0.00
2022-12-26T00:41:41.224Z,0.00
2022-12-26T00:42:41.134Z,0.00
2022-12-26T00:43:41.117Z,0.00
2022-12-26T00:44:40.971Z,0.00
2022-12-26T00:45:40.911Z,0.00
2022-12-26T00:46:40.882Z,0.00
2022-12-26T00:47:40.729Z,0.00
2022-12-26T00:48:40.650Z,0.00
2022-12-26T00:50:11.225Z,0.00
2022-12-26T00:50:40.500Z,0.00
2022-12-26T00:51:40.417Z,0.00
2022-12-26T00:52:40.332Z,0.00
2022-12-26T00:53:40.254Z,0.00
2022-12-26T00:54:40.175Z,0.00
2022-12-26T00:55:40.100Z,0.00
2022-12-26T00:56:40.028Z,0.00
2022-12-26T00:57:40.240Z,0.00
2022-12-26T00:58:39.855Z,0.00
2022-12-26T00:59:39.780Z,0.00
2022-12-26T01:00:39.775Z,0.00
2022-12-26T01:01:39.922Z,0.00
2022-12-26T01:02:39.910Z,0.00
2022-12-26T01:03:39.467Z,0.00
2022-12-26T01:04:39.379Z,0.00
2022-12-26T01:05:39.300Z,0.00
2022-12-26T01:06:39.220Z,0.00
2022-12-26T01:08:19.481Z,0.00
2022-12-26T01:08:39.069Z,0.00
2022-12-26T01:09:38.982Z,0.00
2022-12-26T01:10:38.903Z,0.00
2022-12-26T01:11:38.845Z,0.00
2022-12-26T01:12:38.745Z,0.00
2022-12-26T01:13:38.667Z,0.00
2022-12-26T01:14:38.587Z,0.00
2022-12-26T01:15:38.655Z,0.00
2022-12-26T01:16:38.628Z,0.00
2022-12-26T01:17:38.364Z,0.00
2022-12-26T01:18:38.272Z,0.00
2022-12-26T01:19:38.190Z,0.00
2022-12-26T01:20:38.115Z,0.00
2022-12-26T01:21:38.029Z,0.00
2022-12-26T01:22:38.149Z,0.00
2022-12-26T01:23:38.030Z,0.00
2022-12-26T01:24:37.789Z,0.00
2022-12-26T01:25:37.712Z,0.00
2022-12-26T01:26:37.658Z,0.00
2022-12-26T01:27:37.555Z,0.00
2022-12-26T01:28:37.473Z,0.00
2022-12-26T01:29:37.394Z,0.00
2022-12-26T01:30:37.313Z,0.00
2022-12-26T01:31:37.298Z,0.00
2022-12-26T01:32:37.157Z,0.00
2022-12-26T01:33:37.126Z,0.00
2022-12-26T01:34:36.998Z,0.00
2022-12-26T01:35:36.917Z,0.00
2022-12-26T01:36:36.837Z,0.00
2022-12-26T01:37:36.758Z,0.00
2022-12-26T01:38:36.679Z,0.00
2022-12-26T01:39:36.600Z,0.00
2022-12-26T01:40:36.516Z,0.00
2022-12-26T01:41:36.591Z,0.00
2022-12-26T01:42:36.364Z,0.00
2022-12-26T01:43:36.287Z,0.00
2022-12-26T01:44:36.203Z,0.00
2022-12-26T01:45:36.172Z,0.00
2022-12-26T01:46:36.052Z,0.00
2022-12-26T01:47:36.173Z,0.00
2022-12-26T01:48:35.888Z,0.00
2022-12-26T01:49:35.836Z,0.00
2022-12-26T01:50:35.728Z,0.00
2022-12-26T01:51:35.652Z,0.00
2022-12-26T01:52:35.597Z,0.00
2022-12-26T01:53:35.502Z,0.00
2022-12-26T01:54:38.168Z,0.00
2022-12-26T01:55:35.335Z,0.00
2022-12-26T01:56:35.263Z,0.00
2022-12-26T01:57:35.190Z,0.00
2022-12-26T01:58:35.198Z,0.00
2022-12-26T01:59:35.019Z,0.00
2022-12-26T02:00:35.019Z,0.00
2022-12-26T02:01:34.944Z,0.00
2022-12-26T02:02:34.908Z,0.00
2022-12-26T02:03:34.701Z,0.00
2022-12-26T02:04:34.643Z,0.00
2022-12-26T02:05:34.564Z,0.00
2022-12-26T02:06:34.461Z,0.00
2022-12-26T02:07:34.385Z,0.00
2022-12-26T02:08:34.303Z,0.00
2022-12-26T02:09:34.232Z,0.00
2022-12-26T02:10:34.149Z,0.00
2022-12-26T02:11:34.086Z,0.00
2022-12-26T02:12:38.349Z,0.00
2022-12-26T02:13:33.907Z,0.00
2022-12-26T02:14:33.978Z,0.00
2022-12-26T02:15:33.851Z,0.00
2022-12-26T02:16:33.721Z,0.00
2022-12-26T02:17:33.600Z,0.00
2022-12-26T02:18:33.510Z,0.00
2022-12-26T02:19:33.432Z,0.00
2022-12-26T02:20:33.359Z,0.00
2022-12-26T02:21:33.306Z,0.00
2022-12-26T02:22:33.199Z,0.00
2022-12-26T02:23:33.142Z,0.00
2022-12-26T02:24:33.036Z,0.00
2022-12-26T02:25:32.957Z,0.00
2022-12-26T02:26:32.883Z,0.00
2022-12-26T02:27:32.797Z,0.00
2022-12-26T02:28:32.716Z,0.00
2022-12-26T02:29:32.641Z,0.00
2022-12-26T02:30:32.562Z,0.00
2022-12-26T02:31:32.548Z,0.00
2022-12-26T02:32:32.401Z,0.00
2022-12-26T02:33:32.350Z,0.00
2022-12-26T02:34:32.241Z,0.00
2022-12-26T02:35:32.165Z,0.00
2022-12-26T02:36:32.112Z,0.00
2022-12-26T02:37:32.069Z,0.00
2022-12-26T02:38:31.925Z,0.00
2022-12-26T02:39:45.744Z,0.00
2022-12-26T02:40:31.773Z,0.00
2022-12-26T02:41:31.686Z,0.00
2022-12-26T02:42:31.634Z,0.00
2022-12-26T02:43:31.530Z,0.00
2022-12-26T02:44:31.450Z,0.00
2022-12-26T02:45:31.606Z,0.00
2022-12-26T02:46:31.414Z,0.00
2022-12-26T02:47:31.210Z,0.00
2022-12-26T02:48:31.130Z,0.00
2022-12-26T02:49:31.050Z,0.00
2022-12-26T02:50:30.974Z,0.00
2022-12-26T02:51:30.893Z,0.00
2022-12-26T02:52:30.813Z,0.00
2022-12-26T02:53:30.767Z,0.00
2022-12-26T02:54:30.654Z,0.00
2022-12-26T02:55:30.589Z,0.00
2022-12-26T02:56:30.496Z,0.00
2022-12-26T02:57:30.426Z,0.00
2022-12-26T02:58:30.341Z,0.00
2022-12-26T02:59:56.490Z,0.00
2022-12-26T03:00:30.181Z,0.00
2022-12-26T03:01:30.281Z,0.00
2022-12-26T03:02:30.234Z,0.00
2022-12-26T03:03:30.073Z,0.00
2022-12-26T03:04:29.894Z,0.00
2022-12-26T03:05:29.788Z,0.00
2022-12-26T03:06:29.705Z,0.00
2022-12-26T03:07:29.631Z,0.00
2022-12-26T03:08:29.542Z,0.00
2022-12-26T03:09:29.484Z,0.00
2022-12-26T03:10:29.483Z,0.00
2022-12-26T03:11:29.309Z,0.00
2022-12-26T03:12:29.224Z,0.00
2022-12-26T03:13:29.302Z,0.00
2022-12-26T03:14:29.070Z,0.00
2022-12-26T03:15:28.989Z,0.00
2022-12-26T03:16:28.956Z,0.00
2022-12-26T03:17:28.827Z,0.00
2022-12-26T03:18:57.163Z,0.00
2022-12-26T03:19:28.673Z,0.00
2022-12-26T03:20:28.590Z,0.00
2022-12-26T03:21:28.514Z,0.00
2022-12-26T03:22:28.434Z,0.00
2022-12-26T03:23:28.352Z,0.00
2022-12-26T03:24:28.271Z,0.00
2022-12-26T03:25:28.215Z,0.00
2022-12-26T03:26:28.125Z,0.00
2022-12-26T03:27:28.034Z,0.00
2022-12-26T03:28:27.961Z,0.00
2022-12-26T03:29:27.900Z,0.00
2022-12-26T03:30:27.826Z,0.00
2022-12-26T03:31:27.713Z,0.00
2022-12-26T03:32:27.634Z,0.00
2022-12-26T03:33:27.556Z,0.00
2022-12-26T03:34:27.476Z,0.00
2022-12-26T03:35:27.406Z,0.00
2022-12-26T03:36:27.322Z,0.00
2022-12-26T03:37:47.733Z,0.00
2022-12-26T03:38:27.158Z,0.00
2022-12-26T03:39:27.081Z,0.00
2022-12-26T03:40:26.996Z,0.00
2022-12-26T03:41:26.946Z,0.00
2022-12-26T03:42:26.847Z,0.00
2022-12-26T03:43:27.074Z,0.00
2022-12-26T03:44:26.679Z,0.00
2022-12-26T03:45:26.614Z,0.00
2022-12-26T03:46:26.615Z,0.00
2022-12-26T03:47:26.439Z,0.00
2022-12-26T03:48:26.359Z,0.00
2022-12-26T03:49:26.287Z,0.00
2022-12-26T03:50:26.201Z,0.00
2022-12-26T03:51:26.129Z,0.00
2022-12-26T03:52:26.042Z,0.00
2022-12-26T03:53:25.978Z,0.00
2022-12-26T03:54:25.886Z,0.00
2022-12-26T03:55:25.804Z,0.00
2022-12-26T03:56:25.743Z,0.00
2022-12-26T03:57:25.663Z,0.00
2022-12-26T03:58:25.561Z,0.00
2022-12-26T03:59:25.504Z,0.00
2022-12-26T04:00:25.409Z,0.00
2022-12-26T04:01:25.430Z,0.00
2022-12-26T04:02:25.434Z,0.00
2022-12-26T04:03:25.209Z,0.00
2022-12-26T04:04:25.087Z,0.00
2022-12-26T04:05:25.016Z,0.00
2022-12-26T04:06:24.934Z,0.00
2022-12-26T04:07:24.848Z,0.00
2022-12-26T04:08:24.765Z,0.00
2022-12-26T04:09:24.689Z,0.00
2022-12-26T04:10:24.607Z,0.00
2022-12-26T04:11:24.529Z,0.00
2022-12-26T04:12:24.447Z,0.00
2022-12-26T04:13:24.405Z,0.00
2022-12-26T04:14:24.301Z,0.00
2022-12-26T04:15:24.255Z,0.00
2022-12-26T04:16:24.242Z,0.00
2022-12-26T04:17:24.052Z,0.00
2022-12-26T04:18:23.972Z,0.00
2022-12-26T04:19:23.894Z,0.00
2022-12-26T04:20:23.812Z,0.00
2022-12-26T04:21:23.733Z,0.00
2022-12-26T04:22:23.655Z,0.00
2022-12-26T04:23:23.579Z,0.00
2022-12-26T04:24:23.492Z,0.00
2022-12-26T04:25:50.379Z,0.00
2022-12-26T04:26:23.334Z,0.00
2022-12-26T04:27:23.256Z,0.00
2022-12-26T04:28:23.177Z,0.00
2022-12-26T04:29:23.196Z,0.00
2022-12-26T04:30:23.049Z,0.00
2022-12-26T04:31:23.136Z,0.00
2022-12-26T04:32:22.961Z,0.00
2022-12-26T04:33:22.778Z,0.00
2022-12-26T04:34:22.714Z,0.00
2022-12-26T04:35:22.616Z,0.00
2022-12-26T04:36:22.557Z,0.00
2022-12-26T04:37:22.460Z,0.00
2022-12-26T04:38:22.377Z,0.00
2022-12-26T04:39:22.303Z,0.00
2022-12-26T04:40:22.218Z,0.00
2022-12-26T04:41:22.141Z,0.00
2022-12-26T04:42:22.061Z,0.00
2022-12-26T04:43:49.191Z,0.00
2022-12-26T04:44:21.906Z,0.00
2022-12-26T04:45:21.994Z,0.00
2022-12-26T04:46:21.820Z,0.00
2022-12-26T04:47:21.668Z,0.00
2022-12-26T04:48:21.581Z,0.00
2022-12-26T04:49:21.501Z,0.00
2022-12-26T04:50:21.428Z,0.00
2022-12-26T04:51:21.359Z,0.00
2022-12-26T04:52:21.265Z,0.00
2022-12-26T04:53:21.189Z,0.00
2022-12-26T04:54:21.106Z,0.00
2022-12-26T04:55:21.026Z,0.00
2022-12-26T04:56:20.947Z,0.00
2022-12-26T04:57:20.863Z,0.00
2022-12-26T04:58:20.787Z,0.00
2022-12-26T04:59:20.716Z,0.00
2022-12-26T05:00:20.629Z,0.00
2022-12-26T05:01:20.678Z,0.00
2022-12-26T05:02:20.672Z,0.00
2022-12-26T05:03:20.429Z,0.00
2022-12-26T05:04:20.320Z,0.00
2022-12-26T05:05:20.240Z,0.00
2022-12-26T05:06:20.148Z,0.00
2022-12-26T05:07:20.100Z,0.00
2022-12-26T05:08:19.991Z,0.00
2022-12-26T05:09:19.910Z,0.00
2022-12-26T05:10:19.831Z,0.00
2022-12-26T05:11:19.751Z,0.00
2022-12-26T05:12:19.672Z,0.00
2022-12-26T05:13:19.592Z,0.00
2022-12-26T05:14:19.512Z,0.00
2022-12-26T05:15:19.431Z,0.00
2022-12-26T05:16:19.367Z,0.00
2022-12-26T05:17:19.333Z,0.00
2022-12-26T05:18:19.195Z,0.00
2022-12-26T05:19:19.154Z,0.00
2022-12-26T05:20:19.040Z,0.00
2022-12-26T05:21:19.112Z,0.00
2022-12-26T05:22:18.885Z,0.00
2022-12-26T05:23:18.796Z,0.00
2022-12-26T05:24:18.712Z,0.00
2022-12-26T05:25:18.640Z,0.00
2022-12-26T05:26:18.562Z,0.00
2022-12-26T05:27:18.477Z,0.00
2022-12-26T05:28:18.397Z,0.00
2022-12-26T05:29:18.317Z,0.00
2022-12-26T05:30:18.240Z,0.00
2022-12-26T05:31:18.277Z,0.00
2022-12-26T05:32:18.078Z,0.00
2022-12-26T05:33:18.021Z,0.00
2022-12-26T05:34:17.920Z,0.00
2022-12-26T05:35:17.851Z,0.00
2022-12-26T05:36:17.767Z,0.00
2022-12-26T05:37:17.679Z,0.00
2022-12-26T05:38:17.609Z,0.00
2022-12-26T05:39:17.526Z,0.00
2022-12-26T05:40:17.444Z,0.00
2022-12-26T05:41:17.364Z,0.00
2022-12-26T05:42:17.283Z,0.00
2022-12-26T05:43:17.202Z,0.00
2022-12-26T05:44:17.135Z,0.00
2022-12-26T05:45:17.047Z,0.00
2022-12-26T05:46:16.998Z,0.00
2022-12-26T05:47:16.885Z,0.00
2022-12-26T05:48:16.812Z,0.00
2022-12-26T05:49:16.764Z,0.00
2022-12-26T05:50:16.656Z,0.00
2022-12-26T05:51:16.575Z,0.00
2022-12-26T05:52:16.491Z,0.00
2022-12-26T05:53:16.411Z,0.00
2022-12-26T05:54:16.335Z,0.00
2022-12-26T05:55:16.263Z,0.00
2022-12-26T05:56:16.185Z,0.00
2022-12-26T05:57:16.093Z,0.00
2022-12-26T05:58:16.023Z,0.00
2022-12-26T05:59:15.934Z,0.00
2022-12-26T06:00:15.863Z,0.00
2022-12-26T06:01:15.848Z,0.00
2022-12-26T06:02:15.835Z,0.00
2022-12-26T06:03:15.788Z,0.00
2022-12-26T06:04:15.559Z,0.00
2022-12-26T06:05:15.483Z,0.00
2022-12-26T06:06:15.380Z,0.00
2022-12-26T06:07:15.318Z,0.00
2022-12-26T06:08:15.223Z,0.00
2022-12-26T06:09:15.143Z,0.00
2022-12-26T06:10:15.065Z,0.00
2022-12-26T06:11:14.983Z,0.00
2022-12-26T06:12:14.907Z,0.00
2022-12-26T06:13:14.823Z,0.00
2022-12-26T06:14:14.752Z,0.00
2022-12-26T06:15:14.665Z,0.00
2022-12-26T06:16:14.625Z,0.00
2022-12-26T06:17:14.515Z,0.00
2022-12-26T06:18:14.428Z,0.00
2022-12-26T06:19:14.359Z,0.00
2022-12-26T06:20:14.274Z,0.00
2022-12-26T06:21:14.212Z,0.00
2022-12-26T06:22:14.108Z,0.00
2022-12-26T06:23:14.030Z,0.00
2022-12-26T06:24:13.958Z,0.00
2022-12-26T06:25:13.873Z,0.00
2022-12-26T06:26:13.792Z,0.00
2022-12-26T06:27:13.913Z,0.00
2022-12-26T06:28:13.651Z,0.00
2022-12-26T06:29:13.575Z,0.00
2022-12-26T06:30:13.476Z,0.00
2022-12-26T06:31:13.404Z,0.00
2022-12-26T06:32:13.321Z,0.00
2022-12-26T06:33:13.236Z,0.00
2022-12-26T06:34:13.162Z,0.00
2022-12-26T06:35:13.080Z,0.00
2022-12-26T06:36:12.999Z,0.00
2022-12-26T06:37:12.942Z,0.00
2022-12-26T06:38:12.842Z,0.00
2022-12-26T06:39:12.766Z,0.00
2022-12-26T06:40:12.687Z,0.00
2022-12-26T06:41:12.602Z,0.00
2022-12-26T06:42:12.526Z,0.00
2022-12-26T06:43:12.454Z,0.00
2022-12-26T06:44:17.938Z,0.00
2022-12-26T06:45:12.286Z,0.00
2022-12-26T06:46:12.216Z,0.00
2022-12-26T06:47:12.220Z,0.00
2022-12-26T06:48:12.247Z,0.00
2022-12-26T06:49:11.977Z,0.00
2022-12-26T06:50:11.930Z,0.00
2022-12-26T06:51:11.825Z,0.00
2022-12-26T06:52:11.729Z,0.00
2022-12-26T06:53:11.667Z,0.00
2022-12-26T06:54:11.572Z,0.00
2022-12-26T06:55:11.491Z,0.00
2022-12-26T06:56:11.413Z,0.00
2022-12-26T06:57:11.333Z,4.00
2022-12-26T06:58:11.254Z,4.00
2022-12-26T06:59:11.181Z,0.00
2022-12-26T07:00:11.105Z,0.00
2022-12-26T07:01:11.263Z,0.00
2022-12-26T07:02:11.083Z,4.00
2022-12-26T07:03:10.906Z,4.00
2022-12-26T07:04:10.780Z,4.00
2022-12-26T07:05:10.705Z,4.00
2022-12-26T07:06:10.618Z,8.00
2022-12-26T07:07:10.543Z,8.00
2022-12-26T07:08:10.469Z,4.00
2022-12-26T07:09:10.398Z,4.00
2022-12-26T07:10:10.311Z,0.00
2022-12-26T07:11:10.220Z,4.00
2022-12-26T07:12:10.145Z,4.00
2022-12-26T07:13:10.061Z,8.00
2022-12-26T07:14:10.033Z,8.00
2022-12-26T07:15:09.910Z,8.00
2022-12-26T07:16:09.848Z,12.00
2022-12-26T07:17:09.753Z,16.00
2022-12-26T07:18:09.671Z,12.00
2022-12-26T07:19:09.680Z,12.00
2022-12-26T07:20:09.507Z,16.00
2022-12-26T07:21:09.433Z,12.00
2022-12-26T07:22:09.350Z,8.00
2022-12-26T07:23:09.272Z,8.00
2022-12-26T07:24:09.193Z,12.00
2022-12-26T07:25:09.125Z,16.00
2022-12-26T07:26:09.034Z,20.00
2022-12-26T07:27:08.953Z,20.00
2022-12-26T07:28:08.867Z,24.00
2022-12-26T07:29:08.789Z,24.00
2022-12-26T07:30:08.718Z,24.00
2022-12-26T07:31:08.637Z,28.00
2022-12-26T07:32:08.610Z,32.00
2022-12-26T07:33:08.469Z,36.00
2022-12-26T07:34:08.396Z,48.00
2022-12-26T07:35:08.313Z,56.00
2022-12-26T07:36:08.233Z,68.00
2022-12-26T07:37:08.163Z,80.00
2022-12-26T07:38:08.227Z,84.00
2022-12-26T07:39:07.992Z,92.00
2022-12-26T07:40:07.921Z,108.00
2022-12-26T07:41:07.852Z,120.00
2022-12-26T07:42:07.756Z,144.00
2022-12-26T07:43:07.675Z,156.00
2022-12-26T07:44:07.609Z,132.00
2022-12-26T07:45:07.517Z,116.00
2022-12-26T07:46:07.476Z,112.00
2022-12-26T07:47:07.358Z,136.00
2022-12-26T07:48:07.273Z,116.00
2022-12-26T07:49:07.216Z,116.00
2022-12-26T07:50:07.122Z,96.00
2022-12-26T07:51:07.186Z,92.00
2022-12-26T07:52:06.956Z,128.00
2022-12-26T07:53:06.874Z,140.00
2022-12-26T07:54:11.135Z,112.00
2022-12-26T07:55:06.721Z,92.00
2022-12-26T07:56:06.639Z,96.00
2022-12-26T07:57:46.147Z,108.00
2022-12-26T07:58:06.482Z,76.00
2022-12-26T07:59:06.397Z,92.00
2022-12-26T08:00:06.319Z,140.00
2022-12-26T08:01:06.421Z,180.00
2022-12-26T08:02:06.346Z,184.00
2022-12-26T08:03:07.987Z,164.00
2022-12-26T08:04:06.018Z,184.00
2022-12-26T08:05:05.917Z,180.00
2022-12-26T08:06:05.838Z,164.00
2022-12-26T08:07:05.758Z,112.00
2022-12-26T08:08:05.685Z,156.00
2022-12-26T08:09:05.659Z,220.00
2022-12-26T08:10:05.517Z,208.00
2022-12-26T08:11:05.438Z,200.00
2022-12-26T08:12:05.358Z,196.00
2022-12-26T08:13:05.296Z,248.00
2022-12-26T08:14:05.205Z,228.00
2022-12-26T08:15:05.116Z,128.00
2022-12-26T08:16:05.039Z,116.00
2022-12-26T08:17:05.001Z,188.00
2022-12-26T08:18:04.881Z,240.00
2022-12-26T08:19:04.800Z,296.00
2022-12-26T08:20:04.720Z,256.00
2022-12-26T08:21:04.637Z,228.00
2022-12-26T08:22:04.569Z,228.00
2022-12-26T08:23:04.504Z,240.00
2022-12-26T08:24:04.401Z,248.00
2022-12-26T08:25:04.325Z,196.00
2022-12-26T08:26:04.245Z,160.00
2022-12-26T08:27:04.160Z,160.00
2022-12-26T08:28:04.083Z,136.00
2022-12-26T08:29:04.015Z,156.00
2022-12-26T08:30:03.919Z,224.00
2022-12-26T08:31:03.841Z,248.00
2022-12-26T08:32:03.764Z,352.00
2022-12-26T08:33:03.681Z,420.00
2022-12-26T08:34:03.598Z,404.00
2022-12-26T08:35:03.553Z,336.00
2022-12-26T08:36:03.441Z,260.00
2022-12-26T08:37:03.365Z,316.00
2022-12-26T08:38:03.282Z,308.00
2022-12-26T08:39:03.197Z,376.00
2022-12-26T08:40:03.120Z,548.00
2022-12-26T08:41:03.037Z,720.00
2022-12-26T08:42:02.957Z,744.00
2022-12-26T08:43:29.891Z,560.00
2022-12-26T08:44:26.256Z,384.00
2022-12-26T08:45:02.737Z,380.00
2022-12-26T08:46:02.744Z,348.00
2022-12-26T08:47:02.563Z,272.00
2022-12-26T08:48:02.475Z,600.00
2022-12-26T08:49:02.396Z,788.00
2022-12-26T08:50:02.466Z,604.00
2022-12-26T08:51:02.279Z,476.00
2022-12-26T08:52:02.173Z,628.00
2022-12-26T08:53:02.079Z,760.00
2022-12-26T08:54:01.997Z,648.00
2022-12-26T08:55:01.934Z,668.00
2022-12-26T08:56:01.833Z,736.00
2022-12-26T08:57:01.757Z,736.00
2022-12-26T08:58:01.754Z,736.00
2022-12-26T08:59:01.853Z,736.00
2022-12-26T09:00:01.523Z,696.00
2022-12-26T09:01:01.510Z,660.00
2022-12-26T09:02:01.493Z,648.00
2022-12-26T09:03:01.324Z,632.00
2022-12-26T09:04:01.278Z,636.00
2022-12-26T09:05:01.120Z,592.00
2022-12-26T09:06:05.716Z,560.00
2022-12-26T09:07:01.021Z,556.00
2022-12-26T09:08:00.876Z,688.00
2022-12-26T09:09:00.815Z,848.00
2022-12-26T09:10:00.716Z,924.00
2022-12-26T09:11:00.635Z,900.00
2022-12-26T09:12:00.561Z,856.00
2022-12-26T09:13:00.476Z,752.00
2022-12-26T09:14:00.393Z,648.00
2022-12-26T09:15:00.356Z,628.00
2022-12-26T09:16:00.242Z,620.00
2022-12-26T09:17:00.386Z,600.00
2022-12-26T09:18:00.091Z,572.00
2022-12-26T09:18:59.994Z,560.00
2022-12-26T09:19:59.912Z,580.00
2022-12-26T09:20:59.984Z,636.00
2022-12-26T09:21:59.754Z,672.00
2022-12-26T09:22:59.675Z,684.00
2022-12-26T09:23:59.598Z,724.00
2022-12-26T09:24:59.514Z,740.00
2022-12-26T09:25:59.433Z,700.00
2022-12-26T09:26:59.357Z,708.00
2022-12-26T09:27:59.605Z,708.00
2022-12-26T09:28:59.194Z,732.00
2022-12-26T09:29:59.124Z,712.00
2022-12-26T09:30:59.102Z,716.00
2022-12-26T09:31:58.951Z,720.00
2022-12-26T09:32:58.893Z,736.00
2022-12-26T09:33:58.795Z,708.00
2022-12-26T09:34:58.714Z,768.00
2022-12-26T09:36:03.533Z,868.00
2022-12-26T09:36:58.561Z,924.00
2022-12-26T09:37:58.472Z,872.00
2022-12-26T09:38:58.396Z,912.00
2022-12-26T09:39:58.327Z,900.00
2022-12-26T09:40:58.237Z,832.00
2022-12-26T09:41:58.162Z,768.00
2022-12-26T09:42:58.086Z,680.00
2022-12-26T09:43:57.991Z,620.00
2022-12-26T09:44:57.915Z,604.00
2022-12-26T09:45:57.875Z,584.00
2022-12-26T09:46:57.754Z,564.00
2022-12-26T09:47:57.680Z,572.00
2022-12-26T09:48:57.613Z,656.00
2022-12-26T09:49:57.510Z,772.00
2022-12-26T09:50:57.431Z,840.00
2022-12-26T09:51:57.363Z,844.00
2022-12-26T09:52:57.269Z,832.00
2022-12-26T09:53:57.340Z,840.00
2022-12-26T09:54:57.110Z,888.00
2022-12-26T09:55:57.051Z,880.00
2022-12-26T09:57:07.305Z,1036.00
2022-12-26T09:57:56.868Z,1088.00
2022-12-26T09:58:56.790Z,1164.00
2022-12-26T09:59:56.704Z,1184.00
2022-12-26T10:00:56.627Z,1140.00
2022-12-26T10:01:56.646Z,992.00
2022-12-26T10:02:56.474Z,992.00
2022-12-26T10:03:56.390Z,824.00
2022-12-26T10:04:56.419Z,708.00
2022-12-26T10:05:56.231Z,828.00
2022-12-26T10:06:56.169Z,852.00
2022-12-26T10:07:56.069Z,876.00
2022-12-26T10:08:55.988Z,1072.00
2022-12-26T10:09:55.908Z,1340.00
2022-12-26T10:10:55.827Z,1324.00
2022-12-26T10:11:55.746Z,1388.00
2022-12-26T10:12:55.667Z,1352.00
2022-12-26T10:13:55.592Z,1072.00
2022-12-26T10:14:55.513Z,924.00
2022-12-26T10:15:55.473Z,1028.00
2022-12-26T10:16:55.347Z,772.00
2022-12-26T10:17:55.265Z,656.00
2022-12-26T10:18:55.189Z,560.00
2022-12-26T10:19:55.106Z,740.00
2022-12-26T10:20:55.062Z,820.00
2022-12-26T10:21:54.948Z,992.00
2022-12-26T10:22:54.869Z,1104.00
2022-12-26T10:23:54.792Z,1032.00
2022-12-26T10:24:54.710Z,1200.00
2022-12-26T10:25:54.634Z,1288.00
2022-12-26T10:26:54.551Z,1252.00
2022-12-26T10:27:54.468Z,1036.00
2022-12-26T10:28:54.404Z,1236.00
2022-12-26T10:29:54.352Z,1032.00
2022-12-26T10:30:54.268Z,804.00
2022-12-26T10:31:54.161Z,880.00
2022-12-26T10:32:54.072Z,888.00
2022-12-26T10:33:54.016Z,572.00
2022-12-26T10:34:53.914Z,536.00
2022-12-26T10:35:53.827Z,520.00
2022-12-26T10:36:53.768Z,544.00
2022-12-26T10:37:53.675Z,796.00
2022-12-26T10:38:53.593Z,1080.00
2022-12-26T10:39:53.518Z,980.00
2022-12-26T10:40:53.429Z,1228.00
2022-12-26T10:41:53.353Z,1100.00
2022-12-26T10:42:53.269Z,1052.00
2022-12-26T10:43:53.191Z,1112.00
2022-12-26T10:44:53.156Z,956.00
2022-12-26T10:45:53.030Z,936.00
2022-12-26T10:46:52.951Z,1044.00
2022-12-26T10:47:52.873Z,1180.00
2022-12-26T10:48:52.790Z,1132.00
2022-12-26T10:49:52.707Z,1032.00
2022-12-26T10:50:52.629Z,776.00
2022-12-26T10:51:52.547Z,704.00
2022-12-26T10:52:52.511Z,524.00
2022-12-26T10:53:52.388Z,724.00
2022-12-26T10:54:52.309Z,988.00
2022-12-26T10:55:52.227Z,1136.00
2022-12-26T10:56:52.168Z,728.00
2022-12-26T10:57:52.071Z,800.00
2022-12-26T10:58:52.039Z,832.00
2022-12-26T10:59:51.941Z,600.00
2022-12-26T11:00:51.829Z,624.00
2022-12-26T11:01:51.895Z,1032.00
2022-12-26T11:02:51.850Z,1496.00
2022-12-26T11:03:51.653Z,2236.00
2022-12-26T11:05:15.556Z,2048.00
2022-12-26T11:06:08.607Z,2316.00
2022-12-26T11:06:51.349Z,1752.00
2022-12-26T11:07:51.279Z,2708.00
2022-12-26T11:08:51.253Z,3032.00
2022-12-26T11:09:51.113Z,2756.00
2022-12-26T11:10:51.029Z,3116.00
2022-12-26T11:11:50.948Z,3184.00
2022-12-26T11:12:50.872Z,2772.00
2022-12-26T11:13:50.793Z,2624.00
2022-12-26T11:14:50.716Z,2768.00
2022-12-26T11:15:50.644Z,2828.00
2022-12-26T11:16:50.557Z,2540.00
2022-12-26T11:17:50.472Z,2540.00
2022-12-26T11:18:50.407Z,2624.00
2022-12-26T11:19:50.320Z,2944.00
2022-12-26T11:20:50.235Z,2832.00
2022-12-26T11:21:50.149Z,2452.00
2022-12-26T11:22:50.072Z,2132.00
2022-12-26T11:23:50.011Z,1644.00
2022-12-26T11:24:49.936Z,1796.00
2022-12-26T11:25:49.837Z,1736.00
2022-12-26T11:26:49.757Z,1348.00
2022-12-26T11:27:49.672Z,1464.00
2022-12-26T11:28:49.594Z,1804.00
2022-12-26T11:29:49.662Z,1724.00
2022-12-26T11:30:49.434Z,1772.00
2022-12-26T11:31:49.351Z,1756.00
2022-12-26T11:32:49.278Z,1708.00
2022-12-26T11:33:49.192Z,1916.00
2022-12-26T11:34:49.128Z,2124.00
2022-12-26T11:35:49.033Z,2216.00
2022-12-26T11:36:48.961Z,2148.00
2022-12-26T11:37:48.875Z,2100.00
2022-12-26T11:38:48.805Z,2004.00
2022-12-26T11:39:48.813Z,1736.00
2022-12-26T11:40:48.655Z,1448.00
2022-12-26T11:41:48.556Z,1448.00
2022-12-26T11:42:48.476Z,1360.00
2022-12-26T11:43:48.397Z,1404.00
2022-12-26T11:44:48.423Z,1328.00
2022-12-26T11:45:48.236Z,1324.00
2022-12-26T11:46:48.203Z,1332.00
2022-12-26T11:47:48.074Z,1360.00
2022-12-26T11:48:47.995Z,1496.00
2022-12-26T11:49:47.915Z,1608.00
2022-12-26T11:50:47.845Z,1720.00
2022-12-26T11:51:47.756Z,1784.00
2022-12-26T11:52:47.680Z,1816.00
2022-12-26T11:53:47.594Z,1732.00
2022-12-26T11:54:47.517Z,1604.00
2022-12-26T11:55:47.435Z,1688.00
2022-12-26T11:56:47.381Z,2608.00
2022-12-26T11:57:47.280Z,2572.00
2022-12-26T11:58:47.200Z,2448.00
2022-12-26T11:59:47.116Z,1984.00
2022-12-26T12:00:47.039Z,1580.00
2022-12-26T12:01:47.087Z,1460.00
2022-12-26T12:02:47.086Z,1204.00
2022-12-26T12:03:49.563Z,976.00
2022-12-26T12:04:46.733Z,1116.00
2022-12-26T12:05:46.640Z,1720.00
2022-12-26T12:06:46.566Z,2200.00
2022-12-26T12:07:46.478Z,2492.00
2022-12-26T12:08:46.401Z,2500.00
2022-12-26T12:09:46.313Z,2648.00
2022-12-26T12:10:46.241Z,3116.00
2022-12-26T12:11:46.159Z,3248.00
2022-12-26T12:12:46.264Z,3240.00
2022-12-26T12:13:46.006Z,2880.00
2022-12-26T12:14:50.790Z,2176.00
2022-12-26T12:15:46.039Z,1556.00
2022-12-26T12:16:45.849Z,1536.00
2022-12-26T12:17:45.682Z,1928.00
2022-12-26T12:18:45.605Z,1588.00
2022-12-26T12:19:45.518Z,1048.00
2022-12-26T12:20:51.621Z,768.00
2022-12-26T12:21:45.359Z,800.00
2022-12-26T12:22:45.285Z,612.00
2022-12-26T12:23:45.198Z,648.00
2022-12-26T12:24:45.130Z,656.00
2022-12-26T12:25:45.038Z,756.00
2022-12-26T12:26:49.617Z,664.00
2022-12-26T12:27:44.881Z,632.00
2022-12-26T12:28:44.820Z,604.00
2022-12-26T12:29:44.722Z,588.00
2022-12-26T12:30:44.892Z,676.00
2022-12-26T12:31:44.593Z,752.00
2022-12-26T12:32:44.485Z,868.00
2022-12-26T12:33:44.402Z,1456.00
2022-12-26T12:34:44.326Z,1944.00
2022-12-26T12:35:44.238Z,2508.00
2022-12-26T12:36:44.159Z,2100.00
2022-12-26T12:37:44.079Z,2568.00
2022-12-26T12:38:44.004Z,2472.00
2022-12-26T12:39:43.921Z,2708.00
2022-12-26T12:40:43.856Z,2652.00
2022-12-26T12:41:43.763Z,2784.00
2022-12-26T12:42:43.688Z,2952.00
2022-12-26T12:43:43.617Z,3048.00
2022-12-26T12:44:43.562Z,2852.00
2022-12-26T12:45:43.468Z,2484.00
2022-12-26T12:46:43.381Z,2032.00
2022-12-26T12:47:43.293Z,1664.00
2022-12-26T12:48:43.204Z,1380.00
2022-12-26T12:49:43.122Z,1156.00
2022-12-26T12:50:43.050Z,952.00
2022-12-26T12:51:42.965Z,784.00
2022-12-26T12:52:42.884Z,740.00
2022-12-26T12:53:42.805Z,752.00
2022-12-26T12:54:42.733Z,864.00
2022-12-26T12:55:42.641Z,948.00
2022-12-26T12:56:42.884Z,744.00
2022-12-26T12:57:42.491Z,660.00
2022-12-26T12:58:42.409Z,756.00
2022-12-26T12:59:42.323Z,800.00
2022-12-26T13:00:42.350Z,808.00
2022-12-26T13:01:42.276Z,632.00
2022-12-26T13:02:42.327Z,524.00
2022-12-26T13:03:42.016Z,688.00
2022-12-26T13:04:41.956Z,504.00
2022-12-26T13:05:41.860Z,280.00
2022-12-26T13:06:41.772Z,308.00
2022-12-26T13:07:46.905Z,416.00
2022-12-26T13:08:41.626Z,468.00
2022-12-26T13:09:41.545Z,656.00
2022-12-26T13:10:41.602Z,604.00
2022-12-26T13:11:41.370Z,512.00
2022-12-26T13:12:41.297Z,584.00
2022-12-26T13:13:41.211Z,600.00
2022-12-26T13:14:41.187Z,696.00
2022-12-26T13:15:41.055Z,660.00
2022-12-26T13:16:41.025Z,612.00
2022-12-26T13:17:40.906Z,808.00
2022-12-26T13:18:40.811Z,1104.00
2022-12-26T13:19:40.729Z,780.00